Timeline UpdatesTrip UpdatesNews PostsPvt PostsTravel TipsAdmin PostsConv PostsFollowed PostsChat RequestsBlog PostsPNR Posts

Disclaimer
Search
 
 
Tue Sep 2, 2014 02:30:31 ISTHomeTrainsΣChainsAtlasPNRForumGalleryNewsFAQTripsMembersLoginFeedback
No Recent News for this Train
Other Trains in the News **new
Latest...
Temporary Stop at Vindhyachal (BDL) for 2 min from 31/3/14-11/4/14 #1040164. ***Temporary Augmentation of 1 3AC coach from 4/4/14-27/6/14 #1043381
Wed Apr 02, 2014 (11:27PM)
⇐ Return Journey: Train# 15648

15647/Mumbai LTT-Guwahati Weekly Express

OLD Time-Table. New TT will soon be available.
Nov 15 2013 (5:21PM)
Change Departure Station:
Change Arrival Station:
Post a Train Travel TipPost a Train Travel Tip **new
Post a Comment/Question/Picture/VideoPost a Comment/Question/Picture/Video
Pantry/Catering
✓ Pantry Car Avbl
✓ Catering Avbl
RSA - Rake Sharing
Rake/Coach Composition
2A-1; 3A-3; SL-12; GEN-3; PC-1; SLR-2 :: 22 COACH
Loco
ET-GHY =>ET WDMx
News    PNR    Forum    Time-Table    Availability    Fare Chart    Map    Arr/Dep History    Trips    Gallery    ΣChains    X/O    Timeline    
Travel Time: 52h 55m    52 halts    Distance: 2739 km    Avg Speed: 51 km/hr
Type: Mail/Express
Zone: NFR/Northeast Frontier
Departs @ 08:05
Platform# 5
     F 
Mumbai Lokmanya Tilak Terminus/LTT 
Arrives @ 13:00 +2 nights
Platform# ???
S      
Guwahati/GHY 

52 halts. 435 intermediate Stations between Mumbai Lokmanya Tilak Terminus and Guwahati

Show ALL intermediate Stations  

#CodeStation NameX/OArrivesAvgDepartsAvgHaltPFDay#KmSpeedElevZoneAddress
1LTT»Mumbai Lokmanya Tilak Terminus (5)»  -08:05-510.0737mCRMumbai - 400089, Maharashtra
2KYNKalyan Junction (8)X  08:35-08:40-5m4136.74310mCRKalyan 421301, Maharashtra
3IGPIgatpuri (4)10:35-10:40-5m21118.596589mCRIgatpuri 422403, Maharashtra
4DVLDevlali (3)X  11:08-11:10-2m11163.419561mCRDist. Nashik 422401, Maharashtra
5NKNasik Road (3)  11:28-11:30-2m11169.179563mCRNashik 422101, Maharashtra
6MMRManmad Junction (6)  12:25-12:30-5m11241.982580mCRManmad 423104, Maharashtra
7BSLBhusaval Junction (8)X  14:45-14:55-10m--1426.176208mCRBhusaval 425201, Maharashtra
8BAUBurhanpur (2)X  15:38-15:40-2m21480.636269mCRBurhanpur, Madhya Pradesh
9KNWKhandwa Junction (5)  17:35-17:40-5m--1549.5111310mCRKhandwa, Madhya Pradesh
10HDHarda (3)O  18:38-18:40-2m--1657.157289mWCRHarda, Madhya Pradesh
11ETItarsi Junction (7)X20:00-20:10-10m--1732.972329mWCRItarsi 461111, Madhya Pradesh
12PPIPipariya (3)  21:06-21:08-2m--1800.181338mWCRPiparia, Madhya Pradesh
13JBPJabalpur Junction (4)X  23:20-23:30-10m41977.978416mWCRJabalpur, Madhya Pradesh
14KTEKatni Junction (6)X  00:40-00:45-5m--21068.769387mWCRKatni, Madhya Pradesh
15STASatna Junction (3)XO  02:10-02:20-10m--21167.145322mWCRSatna, Madhya Pradesh
16COIChheoki Junction (3)  06:05-06:10-5m--21337.18096mNCRDist.-Allahabad, Uttar Pradesh
17MZPMirzapur (3)X  07:10-07:15-5m--21417.53888mNCRMirzapur, Uttar Pradesh
18MGSMughal Sarai Junction (8)  08:55-09:10-15m--21480.77583mECRMughalsarai 232101, Uttar Pradesh
19DLNDildarnagar Junction (2)  09:56-09:58-2m--21538.48072mECRDildarnagar, Uttar Pradesh
20BXRBuxar (3)  10:25-10:27-2m--21574.68967mECRBuxar, Bihar
21DUREDumraon (3)X  10:38-10:40-2m--21590.98070mECRDumraon, Bihar
22ARAAra Junction (3)  11:19-11:21-2m--21643.19163mECRarrah( 06182-233411), Bihar
23DNRDanapur (5)X  11:47-11:57-10m--21682.61158mECRKhagaul, Bihar
24PNBEPatna Junction (10)X  12:50-13:00-10m821692.03557mECRPatna 800001, Bihar
25PNCPatna Saheb (3)  13:17-13:19-2m--21701.94359mECRPatna, Bihar
26FUTFatwa (6)  13:36-13:38-2m--21714.16353mECRPatna, Bihar
27KOOKhusropur (2)  13:46-13:48-2m--21722.66252mECRPatna, Bihar
28BKPBakhtiyarpur Junction (5)  14:02-14:04-2m--21737.26151mECRPatna, Bihar
29BARHBarh (3)  14:22-14:24-2m--21755.44349mECRBarh, Bihar
30MKAMokama Junction (4)X  15:00-15:05-5m--21781.35648mECRPatna, Bihar
31HTZHathidah Junction (2)  15:14-15:16-2m121789.76350mECRMusahari, Bihar
32BRYABarhiya (3)  15:25-15:27-2m--21799.13547mECRBarahiya, Bihar
33LKRLuckeesarai Junction (2)  15:53-15:55-2m--21814.1852mECRLakhisarai, Bihar
34KIULKiul Junction (5)X  16:05-16:12-7m--21815.55153mECRDist. Lakhisarai, Bihar
35AHAAbhaipur (2)  16:39-16:41-2m--21838.54252mERAbhaipur, Bihar
36JMPJamalpur Junction (4)X  17:12-17:27-15m--21860.36159mERJamalpur 06344-243101, Bihar
37BUPBariarpur (3)  17:38-17:40-2m--21871.55442mERMunger, Bihar
38SGGSultanGanj (3)  18:00-18:02-2m--21889.44542mERSultanganj, Bihar
39BGPBhagalpur Junction (6)  18:35-18:50-15m--21914.36949mERBhagalpur, Bihar
40CLGKahalgaon (2)X  19:16-19:18-2m121944.43944mERBhagalpur, Bihar
41SBGSahibganj Junction (3)  20:25-20:35-10m121988.34538mERSahibganj, Jharkhand
42BHWBarharwa Junction (3)  21:48-21:50-2m222042.84036mERBarharwa, Jharkhand
43NFKNew Farakka Junction (3)  22:17-22:19-2m222060.83532mERDist - Murshidabad, West Bengal
44MLDTMalda Town (5)X  23:20-23:35-15m--22095.87430mERDist - Malda, West Bengal
45KNEKishanGanj (3)  01:35-01:40-5m--32244.05052mNFRKishanganj, Bihar
46NJPNew Jalpaiguri Junction (8)X  03:25-03:40-15m--32331.349114mNFRCity-Siliguri . Dist-Jalpaiguri, West Bengal
47DQGDhupguri (2)  05:00-05:05-5m--32396.66075mNFRDist - Jalpaiguri, West Bengal
48NCBNew Cooch Behar Junction (5)  06:05-06:10-5m--32456.84547mNFRDist : Cooch Behar-736101, West Bengal
49NOQNew Alipurduar (2)  06:35-06:40-5m--32475.45348mNFRDist - Alipurduar - 736121, West Bengal
50NBQNew Bongaigaon Junction (4)  08:40-08:50-10m--32582.14358mNFR783381., Assam
51BPRDBarpeta Road  09:52-09:57-5m--32626.25049mNFRHowli, Assam
52RNYRangiya Junction (5)  11:15-11:25-10m--32691.13858mNFRRangia, Assam
53KYQKamakhya Junction (4)  12:30-12:35-5m--32731.71755mNFRDist - KAMRUP, Assam
54GHY•Guwahati (7)•  13:00----32738.7-60mNFRGuwahati, Assam
Scroll to Top
Scroll to Bottom